Time;durP1;ratioP1;P1;durP2;ratioP2;P2;SDS_P1;SDS_P2;PMS_P1;PMS_P2;Temp;Humidity;BMP_temperature;BMP_pressure;BME280_temperature;BME280_humidity;BME280_pressure;Samples;Min_cycle;Max_cycle;Signal;HPM_P1;HPM_P2
2022/08/27 00:02:01;;;;;;;6.13;3.47;;;21.10;99.90;;;21.39;100.00;100956.41;5166645;28;20050;-68
2022/08/27 00:04:34;;;;;;;5.65;2.97;;;21.00;99.90;;;21.42;100.00;100959.91;5166631;28;20125;-68
2022/08/27 00:07:08;;;;;;;6.85;3.40;;;21.10;99.90;;;21.38;100.00;100962.56;5165113;28;20462;-67
2022/08/27 00:09:40;;;;;;;5.95;3.10;;;21.10;99.90;;;21.34;100.00;100958.19;5166349;28;20133;-68
2022/08/27 00:12:12;;;;;;;4.85;2.90;;;21.10;99.90;;;21.28;100.00;100952.94;5166687;28;20046;-67
2022/08/27 00:14:46;;;;;;;5.18;2.67;;;21.00;99.90;;;21.24;100.00;100951.13;5166500;28;20042;-67
2022/08/27 00:17:18;;;;;;;5.50;2.58;;;21.00;99.90;;;21.22;100.00;100952.94;5166464;28;20034;-66
2022/08/27 00:19:50;;;;;;;8.13;3.00;;;21.00;99.90;;;21.19;100.00;100952.97;5166329;28;20054;-68
2022/08/27 00:22:23;;;;;;;4.35;2.92;;;20.90;99.90;;;21.21;100.00;100958.25;5166324;28;20042;-67
2022/08/27 00:24:55;;;;;;;4.90;2.72;;;20.90;99.90;;;21.20;100.00;100952.06;5166298;28;20050;-67
2022/08/27 00:27:27;;;;;;;6.40;3.40;;;20.90;99.90;;;21.17;100.00;100953.84;5166101;28;20530;-67
2022/08/27 00:30:00;;;;;;;5.10;3.35;;;20.90;99.90;;;21.16;100.00;100950.31;5164805;28;20140;-68
2022/08/27 00:32:33;;;;;;;6.50;3.53;;;20.90;99.90;;;21.19;100.00;100945.00;5164827;28;20535;-67
2022/08/27 00:35:06;;;;;;;6.30;3.60;;;20.80;99.90;;;21.24;100.00;100951.13;5166233;28;20061;-67
2022/08/27 00:37:39;;;;;;;5.30;3.35;;;20.90;99.90;;;21.27;100.00;100951.13;5165950;28;20038;-67
2022/08/27 00:40:16;;;;;;;4.55;3.53;;;20.90;99.90;;;21.27;100.00;100953.78;5165251;28;20157;-67
2022/08/27 00:42:49;;;;;;;5.07;3.25;;;20.90;99.90;;;21.25;100.00;100952.91;5166163;28;20068;-68
2022/08/27 00:45:24;;;;;;;6.40;3.80;;;20.90;99.90;;;21.24;100.00;100956.44;5165939;28;20503;-66
2022/08/27 00:48:00;;;;;;;6.30;3.88;;;20.90;99.90;;;21.27;100.00;100951.13;5165798;28;20042;-67
2022/08/27 00:50:37;;;;;;;8.07;5.20;;;20.90;99.90;;;21.24;100.00;100951.13;5165706;28;20415;-67
2022/08/27 00:53:12;;;;;;;8.15;4.30;;;20.90;99.90;;;21.24;100.00;100952.91;5165694;28;20491;-67
2022/08/27 00:55:51;;;;;;;8.23;5.07;;;20.90;99.90;;;21.18;100.00;100950.31;5165725;28;20492;-67
2022/08/27 00:58:28;;;;;;;9.10;5.90;;;20.90;99.90;;;21.08;100.00;100949.50;5165564;28;20046;-67
2022/08/27 01:01:05;;;;;;;7.93;5.10;;;20.80;99.90;;;21.03;100.00;100952.16;5165485;28;20121;-67
2022/08/27 01:03:38;;;;;;;6.85;4.82;;;20.80;99.90;;;20.99;100.00;100947.75;5165418;28;20134;-67
2022/08/27 01:06:12;;;;;;;7.55;4.60;;;20.70;99.90;;;20.99;100.00;100960.13;5165800;28;20046;-67
2022/08/27 01:08:49;;;;;;;7.25;4.80;;;20.70;99.90;;;21.00;100.00;100952.19;5165217;28;20035;-67
2022/08/27 01:11:21;;;;;;;6.65;4.30;;;20.70;99.90;;;20.96;100.00;100950.44;5165521;28;20078;-67
2022/08/27 01:13:54;;;;;;;8.05;5.07;;;20.70;99.90;;;20.96;100.00;100952.19;5165231;28;20117;-67
2022/08/27 01:16:33;;;;;;;7.85;4.32;;;20.70;99.90;;;20.96;100.00;100944.25;5165516;28;20129;-67
2022/08/27 01:19:11;;;;;;;7.18;4.78;;;20.70;99.90;;;20.99;100.00;100946.88;5165215;28;20046;-68
2022/08/27 01:21:51;;;;;;;9.00;5.55;;;20.70;99.90;;;20.95;100.00;100951.31;5165352;28;20077;-67
2022/08/27 01:24:35;;;;;;;6.78;4.85;;;20.70;99.90;;;20.93;100.00;100952.19;5165339;28;20412;-66
2022/08/27 01:27:13;;;;;;;7.97;5.63;;;20.60;99.90;;;20.92;100.00;100948.69;5164941;28;20058;-68
2022/08/27 01:29:45;;;;;;;7.97;5.28;;;20.60;99.90;;;20.91;100.00;100940.75;5164714;28;20069;-67
2022/08/27 01:32:21;;;;;;;10.15;5.88;;;20.60;99.90;;;20.89;100.00;100948.72;5165110;28;20046;-67
2022/08/27 01:34:54;;;;;;;9.02;5.40;;;20.60;99.90;;;20.85;100.00;100937.22;5164737;28;20043;-67
2022/08/27 01:37:28;;;;;;;10.23;6.18;;;20.60;99.90;;;20.85;100.00;100939.88;5164708;28;20039;-67
2022/08/27 01:40:02;;;;;;;8.98;5.43;;;20.60;99.90;;;20.81;100.00;100935.50;5164697;28;20052;-68
2022/08/27 01:42:38;;;;;;;10.35;6.10;;;20.60;99.90;;;20.80;100.00;100932.84;5164820;28;20070;-67
2022/08/27 01:45:14;;;;;;;11.07;6.68;;;20.60;99.90;;;20.81;100.00;100924.03;5164734;28;20408;-67
2022/08/27 01:47:46;;;;;;;8.63;5.35;;;20.60;99.90;;;20.83;100.00;100927.53;5164702;28;20045;-67
2022/08/27 01:50:23;;;;;;;8.75;5.20;;;20.60;99.90;;;20.84;100.00;100934.59;5164443;28;20050;-67
2022/08/27 01:52:56;;;;;;;10.85;5.50;;;20.50;99.90;;;20.84;100.00;100930.19;5164686;28;20049;-67
2022/08/27 01:55:29;;;;;;;8.73;4.82;;;20.50;99.90;;;20.80;100.00;100925.81;5164395;28;20050;-67
2022/08/27 01:58:01;;;;;;;10.10;5.72;;;20.50;99.90;;;20.78;100.00;100924.91;5164389;28;20050;-68
2022/08/27 02:00:40;;;;;;;8.35;4.65;;;20.50;99.90;;;20.75;100.00;100919.63;5164413;28;20052;-68
2022/08/27 02:03:13;;;;;;;8.55;5.25;;;20.40;99.90;;;20.73;100.00;100920.50;5164537;28;20117;-67
2022/08/27 02:05:46;;;;;;;7.90;4.60;;;20.40;99.90;;;20.71;100.00;100925.81;5164468;28;20326;-67
2022/08/27 02:08:18;;;;;;;9.10;4.70;;;20.40;99.90;;;20.69;100.00;100919.66;5164197;28;20050;-67
2022/08/27 02:10:52;;;;;;;7.72;4.38;;;20.40;99.90;;;20.68;100.00;100917.91;5164046;28;20046;-67
2022/08/27 02:13:24;;;;;;;6.53;3.78;;;20.40;99.90;;;20.64;100.00;100910.84;5164120;28;20050;-67
2022/08/27 02:15:56;;;;;;;7.18;3.95;;;20.30;99.90;;;20.64;100.00;100920.56;5164073;28;20072;-67
2022/08/27 02:18:29;;;;;;;6.35;3.22;;;20.30;99.90;;;20.62;100.00;100919.72;5164224;28;20030;-67
2022/08/27 02:21:01;;;;;;;8.00;4.35;;;20.30;99.90;;;20.59;100.00;100923.22;5164143;28;20049;-66
2022/08/27 02:23:33;;;;;;;8.15;3.85;;;20.30;99.90;;;20.56;100.00;100912.66;5164223;28;20073;-68
2022/08/27 02:26:07;;;;;;;6.32;3.47;;;20.30;99.90;;;20.55;100.00;100916.19;5164281;28;20056;-67
2022/08/27 02:28:39;;;;;;;8.20;4.03;;;20.30;99.90;;;20.56;100.00;100908.25;5163912;28;20039;-66
2022/08/27 02:31:11;;;;;;;8.00;4.28;;;20.30;99.90;;;20.53;100.00;100902.06;5164072;28;20411;-67
2022/08/27 02:33:43;;;;;;;8.75;4.43;;;20.20;99.90;;;20.48;100.00;100920.66;5164258;28;20051;-67
2022/08/27 02:36:16;;;;;;;10.32;4.53;;;20.20;99.90;;;20.45;100.00;100920.63;5164147;28;20046;-67
2022/08/27 02:38:48;;;;;;;8.80;4.35;;;20.20;99.90;;;20.43;100.00;100918.88;5163852;28;20046;-67
2022/08/27 02:41:22;;;;;;;10.52;4.63;;;20.20;99.90;;;20.36;100.00;100915.34;5163966;28;20539;-67
2022/08/27 02:43:54;;;;;;;7.45;4.30;;;20.20;99.90;;;20.35;100.00;100924.19;5164029;28;20208;-67
2022/08/27 02:46:27;;;;;;;8.55;4.20;;;20.10;99.90;;;20.35;100.00;100912.72;5163993;28;20124;-66
2022/08/27 02:48:59;;;;;;;7.25;4.15;;;20.10;99.90;;;20.38;100.00;100912.69;5163682;28;20045;-66
2022/08/27 02:51:32;;;;;;;7.32;4.15;;;20.10;99.90;;;20.42;100.00;100911.81;5163977;28;20077;-68
2022/08/27 02:54:04;;;;;;;7.90;4.05;;;20.10;99.90;;;20.42;100.00;100907.41;5164078;28;20050;-66
2022/08/27 02:56:39;;;;;;;6.78;3.80;;;20.10;99.90;;;20.43;100.00;100906.50;5163902;28;20514;-67
2022/08/27 02:59:11;;;;;;;8.88;3.95;;;20.10;99.90;;;20.43;100.00;100921.50;5163664;28;20121;-67
2022/08/27 03:01:43;;;;;;;7.43;3.83;;;20.20;99.90;;;20.43;100.00;100921.50;5163630;28;20046;-67
2022/08/27 03:04:17;;;;;;;10.93;4.90;;;20.20;99.90;;;20.40;100.00;100921.50;5167628;28;20125;-67
2022/08/27 03:06:50;;;;;;;10.13;4.70;;;20.10;99.90;;;20.40;100.00;100918.84;5167690;28;20124;-67
2022/08/27 03:09:22;;;;;;;9.02;4.85;;;20.10;99.90;;;20.40;100.00;100913.56;5167685;28;20277;-67
2022/08/27 03:11:56;;;;;;;11.63;5.35;;;20.10;99.90;;;20.38;100.00;100918.00;5167761;28;20047;-67
2022/08/27 03:14:28;;;;;;;11.85;5.50;;;20.10;99.90;;;20.37;100.00;100913.59;5168005;28;20057;-67
2022/08/27 03:18:16;;;;;;;11.82;5.63;;;20.10;99.90;;;20.36;100.00;100917.13;5167522;28;20045;-68
2022/08/27 03:19:52;;;;;;;12.10;5.85;;;20.10;99.90;;;20.36;100.00;100918.00;5165995;28;20042;-66
2022/08/27 03:22:25;;;;;;;11.10;5.50;;;20.10;99.90;;;20.31;100.00;100912.72;5167272;28;20050;-67
2022/08/27 03:24:57;;;;;;;14.82;7.15;;;20.10;99.90;;;20.33;100.00;100915.34;5167471;28;20057;-67
2022/08/27 03:27:31;;;;;;;13.60;6.65;;;20.00;99.90;;;20.34;100.00;100911.81;5167605;28;20109;-67
2022/08/27 03:30:05;;;;;;;13.07;6.25;;;20.10;99.90;;;20.30;100.00;100910.97;5167231;28;20051;-68
2022/08/27 03:32:38;;;;;;;14.93;7.10;;;20.00;99.90;;;20.26;100.00;100914.47;5168020;28;20041;-67
2022/08/27 03:35:12;;;;;;;17.65;9.07;;;20.00;99.90;;;20.23;100.00;100918.94;5168156;28;20049;-68
2022/08/27 03:37:44;;;;;;;18.13;9.15;;;20.00;99.90;;;20.20;100.00;100916.28;5168154;28;20068;-67
2022/08/27 03:40:16;;;;;;;15.23;7.55;;;20.00;99.90;;;20.20;100.00;100918.91;5168308;28;20047;-67
2022/08/27 03:42:50;;;;;;;15.18;7.97;;;20.00;99.90;;;20.22;100.00;100918.03;5167280;28;20038;-67
2022/08/27 03:45:22;;;;;;;18.58;9.07;;;20.00;99.90;;;20.20;100.00;100918.91;5166980;28;20072;-67
2022/08/27 03:47:54;;;;;;;20.77;9.77;;;20.00;99.90;;;20.11;100.00;100925.13;5167020;28;20081;-67
2022/08/27 03:50:27;;;;;;;17.85;8.98;;;19.90;99.90;;;20.09;100.00;100921.63;5165684;28;20051;-66
2022/08/27 03:53:00;;;;;;;18.80;10.02;;;19.90;99.90;;;20.12;100.00;100916.28;5189428;23;20792;-77
2022/08/27 03:55:32;;;;;;;15.70;7.90;;;19.90;99.90;;;20.14;100.00;100922.44;5177088;28;20064;-78
2022/08/27 03:58:08;;;;;;;19.10;9.57;;;19.90;99.90;;;20.13;100.00;100912.75;5169612;28;20122;-78
2022/08/27 04:00:42;;;;;;;17.20;9.02;;;19.90;99.90;;;20.11;100.00;100927.78;5169874;28;20061;-77
2022/08/27 04:03:15;;;;;;;21.23;9.75;;;19.80;99.90;;;20.11;100.00;100924.25;5169768;28;20070;-77
2022/08/27 04:05:53;;;;;;;15.02;7.53;;;19.80;99.90;;;20.09;100.00;100932.19;5170062;28;20050;-77
2022/08/27 04:08:27;;;;;;;17.75;9.13;;;19.80;99.90;;;20.05;100.00;100925.13;5153147;28;20046;-78
2022/08/27 04:11:02;;;;;;;;;;;19.80;99.90;;;20.04;100.00;100928.66;5188342;28;20390;-78
2022/08/27 04:13:37;;;;;;;17.35;7.22;;;19.70;99.90;;;20.05;100.00;100923.38;5185551;28;19928;-78
2022/08/27 04:16:11;;;;;;;15.75;7.22;;;19.70;99.90;;;20.10;100.00;100923.38;5169235;28;20132;-77
2022/08/27 04:18:46;;;;;;;13.38;6.53;;;19.80;99.90;;;20.13;100.00;100926.00;5186621;28;20050;-77
2022/08/27 04:21:19;;;;;;;13.95;7.50;;;19.80;99.90;;;20.13;100.00;100923.34;5169945;28;20132;-77
2022/08/27 04:23:53;;;;;;;13.32;6.90;;;19.80;99.90;;;20.15;100.00;100926.91;5169130;28;20050;-78
2022/08/27 04:26:26;;;;;;;13.70;6.55;;;19.80;99.90;;;20.17;100.00;100930.41;5152827;28;20131;-78
2022/08/27 04:29:00;;;;;;;17.25;8.57;;;19.80;99.90;;;20.13;100.00;100928.63;5185648;28;20049;-77
2022/08/27 04:31:34;;;;;;;14.43;7.20;;;19.80;99.90;;;20.11;100.00;100946.28;5186698;28;20132;-77
2022/08/27 04:34:09;;;;;;;13.05;6.57;;;19.80;99.90;;;20.13;100.00;100941.88;5169474;28;20050;-78
2022/08/27 04:36:43;;;;;;;12.25;6.95;;;19.80;99.90;;;20.13;100.00;100941.00;5169492;28;20428;-78
2022/08/27 04:39:19;;;;;;;12.95;6.70;;;19.80;99.90;;;20.16;100.00;100943.66;5168945;28;20050;-78
2022/08/27 04:41:53;;;;;;;13.98;8.10;;;19.80;99.90;;;20.17;100.00;100951.56;5153741;28;20054;-77
2022/08/27 04:44:29;;;;;;;;;;;19.80;99.90;;;20.13;100.00;100949.81;5153475;28;20049;-77
2022/08/27 04:47:04;;;;;;;13.65;7.07;;;19.80;99.90;;;20.11;100.00;100953.34;5168606;28;20453;-78
2022/08/27 04:49:37;;;;;;;14.57;7.80;;;19.80;99.90;;;20.11;100.00;100946.28;5186503;28;20463;-77
2022/08/27 04:52:10;;;;;;;14.50;7.07;;;19.80;99.90;;;20.11;100.00;100956.88;5186278;28;20100;-77
2022/08/27 04:54:43;;;;;;;16.23;7.60;;;19.80;99.90;;;20.06;100.00;100953.34;5185987;28;20042;-77
2022/08/27 04:57:17;;;;;;;14.35;7.00;;;19.80;99.90;;;20.03;100.00;100950.72;5168332;28;20045;-77
2022/08/27 04:59:51;;;;;;;14.93;7.68;;;19.70;99.90;;;20.00;100.00;100956.00;5184721;28;20056;-77
2022/08/27 05:02:24;;;;;;;16.58;7.97;;;19.70;99.90;;;19.99;100.00;100960.41;5184851;28;20046;-77
2022/08/27 05:04:57;;;;;;;15.20;7.75;;;19.70;99.90;;;19.99;100.00;100959.53;5168728;28;20141;-77
2022/08/27 05:07:32;;;;;;;14.05;7.28;;;19.70;99.90;;;19.98;100.00;100965.72;5184324;28;20065;-78
2022/08/27 05:10:08;;;;;;;12.13;6.13;;;19.70;99.90;;;19.98;100.00;100965.72;5167419;28;20050;-77
2022/08/27 05:12:42;;;;;;;12.48;6.30;;;19.70;99.90;;;19.95;100.00;100961.31;5184557;28;20051;-77
2022/08/27 05:15:17;;;;;;;10.60;5.53;;;19.70;99.90;;;19.98;100.00;100971.00;5167734;28;20046;-78
2022/08/27 05:17:50;;;;;;;11.13;5.78;;;19.70;99.90;;;20.00;100.00;100974.53;5168176;28;20049;-77
2022/08/27 05:20:27;;;;;;;13.82;6.22;;;19.70;99.90;;;19.97;100.00;100961.31;5152033;28;20073;-77
2022/08/27 05:23:01;;;;;;;11.38;6.93;;;19.70;99.90;;;19.92;100.00;100971.00;5167866;28;20389;-77
2022/08/27 05:25:40;;;;;;;13.40;6.55;;;19.70;99.90;;;19.90;100.00;100970.13;5185396;28;20038;-77
2022/08/27 05:28:16;;;;;;;11.73;6.47;;;19.70;99.90;;;19.90;100.00;100972.78;5168340;28;20133;-78
2022/08/27 05:30:53;;;;;;;13.75;6.80;;;19.70;99.90;;;19.90;100.00;100978.97;5168031;28;20369;-77
2022/08/27 05:33:26;;;;;;;17.00;7.93;;;19.60;99.90;;;19.87;100.00;100975.41;5151494;28;20050;-77
2022/08/27 05:36:00;;;;;;;13.98;7.35;;;19.60;99.90;;;19.82;100.00;100972.75;5167954;28;20435;-78
2022/08/27 05:38:34;;;;;;;12.85;6.38;;;19.60;99.90;;;19.79;100.00;100970.13;5185612;28;20049;-78
2022/08/27 05:41:10;;;;;;;13.13;6.88;;;19.60;99.90;;;19.78;100.00;100973.66;5183938;28;20100;-78
2022/08/27 05:43:44;;;;;;;14.18;7.18;;;19.50;99.90;;;19.75;100.00;100963.94;5151590;28;20062;-78
2022/08/27 05:46:22;;;;;;;12.75;6.57;;;19.50;99.90;;;19.73;100.00;100960.44;5183696;28;20050;-77
2022/08/27 05:48:58;;;;;;;14.80;6.63;;;19.50;99.90;;;19.72;100.00;100963.97;5185549;28;20104;-77
2022/08/27 05:51:32;;;;;;;13.15;6.57;;;19.50;99.90;;;19.72;100.00;100968.38;5168064;28;20058;-77
2022/08/27 05:54:10;;;;;;;13.38;6.65;;;19.50;99.90;;;19.69;100.00;100958.69;5184821;28;20042;-77
2022/08/27 05:56:43;;;;;;;15.10;7.63;;;19.50;99.90;;;19.67;100.00;100957.78;5167234;28;20049;-77
2022/08/27 06:02:07;;;;;;;8.55;4.80;;;19.40;99.90;;;19.86;100.00;100961.31;5167901;28;20196;-75
2022/08/27 06:04:39;;;;;;;9.25;4.72;;;19.70;99.90;;;20.27;100.00;100963.88;5185110;28;20057;-71
2022/08/27 06:07:12;;;;;;;12.25;5.72;;;20.00;99.90;;;20.64;100.00;100960.28;5183523;28;20073;-71
2022/08/27 06:09:45;;;;;;;12.25;6.13;;;20.40;99.90;;;20.97;100.00;100964.56;5184408;28;20049;-79
2022/08/27 06:12:18;;;;;;;9.88;5.50;;;20.80;99.90;;;20.97;100.00;100972.50;5167130;28;20536;-79
2022/08/27 06:14:50;;;;;;;13.35;6.63;;;20.80;99.90;;;20.69;100.00;100972.63;5166147;28;20139;-79
2022/08/27 06:17:25;;;;;;;11.00;5.75;;;20.60;99.90;;;20.43;100.00;100969.16;5184436;28;20061;-78
2022/08/27 06:19:57;;;;;;;;;;;20.40;99.90;;;20.25;100.00;100972.72;5151519;28;20058;-78
2022/08/27 06:22:30;;;;;;;11.88;6.13;;;20.20;99.90;;;20.10;100.00;100976.28;5183413;28;19943;-79
2022/08/27 06:25:03;;;;;;;12.35;6.95;;;20.00;99.90;;;19.98;100.00;100973.66;5183127;28;20385;-79
2022/08/27 06:27:36;;;;;;;11.35;6.20;;;19.90;99.90;;;19.85;100.00;100980.72;5183015;28;20069;-78
2022/08/27 06:30:14;;;;;;;11.60;6.10;;;19.70;99.90;;;19.78;100.00;100976.31;5167572;28;20049;-78
2022/08/27 06:32:50;;;;;;;12.55;6.00;;;19.70;99.90;;;19.75;100.00;100978.94;5167412;28;20046;-78
2022/08/27 06:35:23;;;;;;;10.98;4.80;;;19.50;99.90;;;19.70;100.00;100981.59;5184835;28;20065;-79
2022/08/27 06:37:56;;;;;;;13.30;6.38;;;19.50;99.90;;;19.67;100.00;100981.59;5150326;28;20419;-78
2022/08/27 06:40:29;;;;;;;14.25;6.18;;;19.40;99.90;;;19.62;100.00;100980.69;5151126;28;20056;-78
2022/08/27 06:43:02;;;;;;;10.23;5.20;;;19.40;99.90;;;19.55;100.00;100981.53;5183978;28;20052;-78
2022/08/27 06:45:39;;;;;;;10.23;5.50;;;19.30;99.90;;;19.52;100.00;100986.84;5150853;28;20162;-78
2022/08/27 06:48:14;;;;;;;10.10;5.43;;;19.30;99.90;;;19.48;100.00;100979.78;5182597;28;20050;-79
2022/08/27 06:50:47;;;;;;;10.35;5.45;;;19.30;99.90;;;19.42;100.00;100982.41;5150895;28;20045;-79
2022/08/27 06:53:20;;;;;;;8.93;5.32;;;19.20;99.90;;;19.38;100.00;100978.91;5166868;28;20042;-79
2022/08/27 06:55:52;;;;;;;9.60;5.43;;;19.20;99.90;;;19.35;100.00;100978.00;5166473;28;20038;-78
2022/08/27 06:58:26;;;;;;;10.18;5.55;;;19.10;99.90;;;19.35;100.00;100980.63;5134782;28;20038;-79
2022/08/27 07:00:59;;;;;;;10.15;5.57;;;19.10;99.90;;;19.35;100.00;100980.63;5150877;28;20077;-79
2022/08/27 07:03:33;;;;;;;11.60;5.68;;;19.10;99.90;;;19.34;100.00;100986.81;5166813;28;20420;-79
2022/08/27 07:06:08;;;;;;;9.48;5.05;;;19.10;99.90;;;19.34;100.00;100978.88;5166643;28;20034;-79
2022/08/27 07:08:44;;;;;;;11.52;4.60;;;19.10;99.90;;;19.35;100.00;100980.63;5183994;28;20044;-79
2022/08/27 07:11:21;;;;;;;8.98;4.75;;;19.10;99.90;;;19.34;100.00;100976.22;5167361;28;20073;-78
2022/08/27 07:13:55;;;;;;;7.90;4.65;;;19.10;99.90;;;19.34;100.00;100977.13;5167390;28;20046;-78
2022/08/27 07:16:30;;;;;;;9.23;4.97;;;19.10;99.90;;;19.36;100.00;100974.47;5166892;28;20428;-79
2022/08/27 07:19:07;;;;;;;7.20;4.25;;;19.10;99.90;;;19.40;100.00;100977.13;5184169;28;20435;-79
2022/08/27 07:21:42;;;;;;;6.13;4.03;;;19.10;99.90;;;19.40;100.00;100977.13;5166468;28;20042;-79
2022/08/27 07:24:15;;;;;;;10.02;4.57;;;19.10;99.90;;;19.40;100.00;100976.25;5166930;28;20064;-79
2022/08/27 07:26:48;;;;;;;6.82;3.95;;;19.10;99.90;;;19.40;100.00;100982.41;5150199;28;20046;-79
2022/08/27 07:29:21;;;;;;;6.68;4.32;;;19.10;99.90;;;19.40;100.00;100985.06;5166405;28;20234;-78
2022/08/27 07:31:53;;;;;;;8.25;4.35;;;19.10;99.90;;;19.40;100.00;100981.53;5183878;28;20132;-79
2022/08/27 07:34:28;;;;;;;8.13;4.45;;;19.10;99.90;;;19.43;100.00;100981.53;5166252;28;20046;-79
2022/08/27 07:37:03;;;;;;;8.15;4.20;;;19.10;99.90;;;19.46;100.00;100978.91;5166264;28;20050;-78
2022/08/27 07:39:36;;;;;;;6.75;4.57;;;19.10;99.90;;;19.47;100.00;100988.59;5166821;28;20038;-78
2022/08/27 07:45:01;;;;;;;7.88;4.32;;;19.20;99.90;;;19.44;100.00;100986.84;5166369;28;20413;-79
2022/08/27 07:47:34;;;;;;;7.43;4.00;;;19.20;99.90;;;19.48;100.00;100987.69;5166300;28;20058;-80
2022/08/27 07:50:11;;;;;;;8.05;4.47;;;19.20;99.90;;;19.44;100.00;100989.47;5186556;28;20042;-79
2022/08/27 07:52:44;;;;;;;6.75;3.90;;;19.20;99.90;;;19.44;100.00;100988.59;5186018;28;20316;-79
2022/08/27 07:55:18;;;;;;;6.22;4.00;;;19.20;99.90;;;19.46;100.00;101003.56;5187525;28;20049;-79
2022/08/27 07:57:51;;;;;;;6.80;4.22;;;19.20;99.90;;;19.47;100.00;100993.88;5187209;28;20033;-78
2022/08/27 08:00:24;;;;;;;6.78;3.92;;;19.20;99.90;;;19.45;100.00;100993.88;5169732;28;20081;-79
2022/08/27 08:02:56;;;;;;;6.32;4.20;;;19.20;99.90;;;19.43;100.00;101007.97;5187042;28;20046;-79
2022/08/27 08:05:30;;;;;;;6.88;4.10;;;19.20;99.90;;;19.38;100.00;101001.81;5153547;28;20065;-79
2022/08/27 08:08:07;;;;;;;6.47;4.13;;;19.20;99.90;;;19.38;100.00;101007.09;5169441;28;20440;-78
2022/08/27 08:10:41;;;;;;;7.78;4.15;;;19.10;99.90;;;19.39;100.00;101000.91;5185474;28;20049;-78
2022/08/27 08:13:16;;;;;;;5.68;3.63;;;19.10;99.90;;;19.42;100.00;101003.56;5170155;28;20054;-78
2022/08/27 08:15:49;;;;;;;5.75;3.53;;;19.10;99.90;;;19.44;100.00;100999.16;5185642;28;20144;-78
2022/08/27 08:18:25;;;;;;;6.90;3.95;;;19.20;99.90;;;19.48;100.00;101007.09;5153387;28;20046;-78
2022/08/27 08:21:03;;;;;;;8.90;5.47;;;19.20;99.90;;;19.53;100.00;101009.75;5153764;28;20397;-79
2022/08/27 08:23:37;;;;;;;7.97;5.00;;;19.20;99.90;;;19.51;100.00;101011.53;5186752;28;20049;-78
2022/08/27 08:26:12;;;;;;;10.10;6.32;;;19.30;99.90;;;19.50;100.00;101009.75;5186452;28;20390;-79
2022/08/27 08:28:46;;;;;;;10.88;7.22;;;19.30;99.90;;;19.51;100.00;101016.81;5168817;28;20428;-79
2022/08/27 08:31:22;;;;;;;10.48;6.95;;;19.30;99.90;;;19.54;100.00;101011.50;5169438;28;20054;-79
2022/08/27 08:33:59;;;;;;;10.88;6.70;;;19.30;99.90;;;19.56;100.00;101016.78;5186589;28;20045;-78
2022/08/27 08:36:36;;;;;;;8.95;6.30;;;19.30;99.90;;;19.52;100.00;101015.91;5168879;28;20128;-79
2022/08/27 08:39:10;;;;;;;11.25;6.72;;;19.30;99.90;;;19.51;100.00;101007.09;5169046;28;20177;-79
2022/08/27 08:41:49;;;;;;;9.35;6.60;;;19.30;99.90;;;19.58;100.00;101013.31;5186468;28;20457;-78
2022/08/27 08:44:37;;;;;;;9.85;6.22;;;19.30;99.90;;;19.58;100.00;101015.97;5168901;28;20067;-79
2022/08/27 08:47:14;;;;;;;11.50;6.85;;;19.30;99.90;;;19.61;100.00;101023.88;5168780;28;20083;-79
2022/08/27 08:49:54;;;;;;;12.43;6.95;;;19.30;99.90;;;19.62;100.00;101020.38;5168975;28;20049;-79
2022/08/27 08:52:41;;;;;;;9.65;6.78;;;19.40;99.90;;;19.64;100.00;101029.19;5168658;28;20464;-78
2022/08/27 08:55:38;;;;;;;10.10;6.38;;;19.40;99.90;;;19.63;100.00;101037.13;5184995;28;20488;-79
2022/08/27 08:58:21;;;;;;;9.98;6.60;;;19.40;99.90;;;19.63;100.00;101032.72;5152532;28;20049;-80
2022/08/27 09:00:58;;;;;;;11.75;6.63;;;19.40;99.90;;;19.63;100.00;101043.31;5169086;28;20046;-78
2022/08/27 09:03:36;;;;;;;10.50;6.82;;;19.40;99.90;;;19.62;100.00;101040.63;5152621;28;20050;-78
2022/08/27 09:06:22;;;;;;;10.32;6.38;;;19.40;99.90;;;19.63;100.00;101043.31;5184371;28;20049;-79
2022/08/27 09:08:57;;;;;;;9.82;6.65;;;19.40;99.90;;;19.64;100.00;101042.41;5184648;28;20144;-79
2022/08/27 09:11:39;;;;;;;10.57;6.47;;;19.40;99.90;;;19.68;100.00;101046.81;5168507;28;20100;-79
2022/08/27 09:14:31;;;;;;;10.25;6.65;;;19.40;99.90;;;19.68;100.00;101036.25;5168463;28;20495;-78
2022/08/27 09:17:05;;;;;;;8.35;5.95;;;19.40;99.90;;;19.70;100.00;101039.78;5153937;28;20085;-78
2022/08/27 09:19:39;;;;;;;8.68;6.25;;;19.50;99.90;;;19.69;100.00;101042.41;5184459;28;20129;-79
2022/08/27 09:22:22;;;;;;;8.95;5.88;;;19.50;99.90;;;19.67;100.00;101042.41;5185317;28;20049;-79
2022/08/27 09:25:10;;;;;;;9.30;5.82;;;19.40;99.90;;;19.70;100.00;101050.38;5168838;28;20041;-78
2022/08/27 09:27:45;;;;;;;9.90;6.22;;;19.50;99.90;;;19.67;100.00;101050.34;5167890;28;20045;-79
2022/08/27 09:30:22;;;;;;;9.43;6.30;;;19.40;99.90;;;19.68;100.00;101045.94;5136208;28;20046;-78
2022/08/27 09:32:59;;;;;;;10.35;6.63;;;19.40;99.90;;;19.68;100.00;101049.47;5185221;28;20073;-78
2022/08/27 09:35:43;;;;;;;10.00;5.57;;;19.40;99.90;;;19.72;100.00;101053.00;5184185;28;20054;-79
2022/08/27 09:38:27;;;;;;;10.13;6.13;;;19.50;99.90;;;19.71;100.00;101052.13;5167750;28;20042;-78
2022/08/27 09:41:08;;;;;;;9.25;5.53;;;19.50;99.90;;;19.75;100.00;101053.88;5152267;28;20104;-79
2022/08/27 09:43:42;;;;;;;7.88;4.93;;;19.50;99.90;;;19.81;100.00;101054.78;5185194;28;20042;-79
2022/08/27 09:46:21;;;;;;;7.07;4.80;;;19.50;99.90;;;19.79;100.00;101050.38;5185065;28;20053;-78
2022/08/27 09:48:54;;;;;;;9.32;5.82;;;19.50;99.90;;;19.76;100.00;101053.03;5167585;28;20050;-78
2022/08/27 09:51:30;;;;;;;8.90;5.88;;;19.50;99.90;;;19.77;100.00;101057.44;5184540;28;20390;-79
2022/08/27 09:54:05;;;;;;;8.10;5.13;;;19.50;99.90;;;19.81;100.00;101063.59;5168525;28;20052;-78
2022/08/27 09:56:43;;;;;;;12.38;6.63;;;19.60;99.90;;;19.82;100.00;101067.09;5167578;28;20129;-78
2022/08/27 09:59:26;;;;;;;9.90;5.60;;;19.60;99.90;;;19.78;100.00;101059.19;5183798;28;20049;-78
2022/08/27 10:02:07;;;;;;;9.57;5.80;;;19.50;99.90;;;19.79;100.00;101055.66;5152312;28;20527;-79
2022/08/27 10:04:43;;;;;;;11.68;6.55;;;19.60;99.90;;;19.86;100.00;101064.47;5167634;28;20441;-78
2022/08/27 10:07:45;;;;;;;9.32;5.78;;;19.60;99.90;;;19.92;100.00;101061.84;5184888;28;20041;-79
2022/08/27 10:10:37;;;;;;;8.98;5.13;;;19.70;99.90;;;19.95;100.00;101066.25;5183506;28;20608;-78
2022/08/27 10:13:17;;;;;;;;;;;19.70;99.90;;;20.00;100.00;101048.59;5184474;28;20045;-78
2022/08/27 10:16:08;;;;;;;8.75;5.25;;;19.70;99.90;;;20.05;100.00;101062.72;5184661;28;20320;-78
2022/08/27 10:18:50;;;;;;;7.63;4.82;;;19.70;99.90;;;20.08;100.00;101059.19;5183476;28;20049;-78
2022/08/27 10:21:35;;;;;;;7.32;4.82;;;19.80;99.90;;;20.12;100.00;101061.84;5135127;28;20045;-78
2022/08/27 10:24:20;;;;;;;7.40;4.25;;;19.80;99.90;;;20.15;100.00;101056.56;5184381;28;20046;-78
2022/08/27 10:27:06;;;;;;;7.35;4.18;;;19.90;99.90;;;20.24;100.00;101067.13;5184412;28;20091;-78
2022/08/27 10:29:49;;;;;;;6.72;3.85;;;19.90;99.90;;;20.32;100.00;101061.84;5167029;28;20057;-78
2022/08/27 10:32:58;;;;;;;8.40;4.53;;;20.00;99.90;;;20.36;100.00;101060.09;5183271;28;20073;-78
2022/08/27 10:35:43;;;;;;;8.98;3.85;;;20.00;99.90;;;20.41;100.00;101061.84;5152480;28;20058;-79
2022/08/27 10:38:22;;;;;;;4.28;3.42;;;20.00;99.90;;;20.46;100.00;101064.50;5184374;28;20065;-79
2022/08/27 10:41:03;;;;;;;6.78;3.70;;;20.10;99.90;;;20.53;100.00;101055.66;5166669;28;20057;-79
2022/08/27 10:44:11;;;;;;;6.57;4.15;;;20.20;99.90;;;20.58;100.00;101054.75;5184249;28;20061;-79